createdAt,value
2018-05-17T17:07:53.526Z,2.40
2018-05-17T17:10:24.507Z,1.90
2018-05-17T17:12:51.118Z,2.23
2018-05-17T17:15:17.619Z,2.50
2018-05-17T17:17:44.462Z,3.47
2018-05-17T17:20:10.965Z,4.47
2018-05-17T17:22:37.466Z,3.23
2018-05-17T17:25:04.383Z,3.50
2018-05-17T17:27:31.179Z,3.60
2018-05-17T17:29:58.085Z,4.10
2018-05-17T17:32:24.675Z,4.10
2018-05-17T17:34:51.850Z,6.03
2018-05-17T17:37:18.688Z,5.40
2018-05-17T17:39:45.530Z,5.30
2018-05-17T17:42:12.774Z,5.70
2018-05-17T17:44:40.994Z,5.17
2018-05-17T17:47:07.422Z,6.40
2018-05-17T17:49:35.961Z,6.30
2018-05-17T17:52:02.433Z,5.80
2018-05-17T17:54:29.611Z,6.30
2018-05-17T17:56:56.173Z,4.90
2018-05-17T17:59:23.349Z,4.47
2018-05-17T18:01:50.447Z,4.30
2018-05-17T18:04:16.930Z,4.00
2018-05-17T18:06:43.373Z,4.10
2018-05-17T18:09:10.093Z,5.03
2018-05-17T18:11:37.211Z,5.40
2018-05-17T18:14:04.039Z,4.40
2018-05-17T18:16:30.879Z,5.00
2018-05-17T18:18:57.704Z,5.30
2018-05-17T18:21:24.573Z,6.00
2018-05-17T18:23:51.030Z,8.40
2018-05-17T18:26:17.643Z,8.90
2018-05-17T18:28:44.110Z,9.40
2018-05-17T18:31:10.588Z,10.65
2018-05-17T18:33:37.280Z,9.10
2018-05-17T18:36:04.990Z,9.07
2018-05-17T18:38:32.244Z,8.85
2018-05-17T18:40:59.335Z,7.30
2018-05-17T18:43:25.888Z,8.10
2018-05-17T18:45:52.338Z,11.12
2018-05-17T18:48:19.579Z,12.00
2018-05-17T18:50:46.100Z,9.60
2018-05-17T18:53:12.550Z,8.23
2018-05-17T18:55:39.703Z,7.62
2018-05-17T18:58:06.138Z,10.15
2018-05-17T19:00:33.390Z,9.68
2018-05-17T19:03:00.210Z,11.52
2018-05-17T19:05:27.031Z,8.27
2018-05-17T19:07:53.478Z,10.00
2018-05-17T19:10:20.454Z,7.25
2018-05-17T19:12:48.698Z,8.20
2018-05-17T19:15:15.138Z,6.15
2018-05-17T19:17:43.095Z,7.35
2018-05-17T19:20:10.326Z,6.65
2018-05-17T19:22:36.837Z,6.10
2018-05-17T19:25:03.492Z,6.62
2018-05-17T19:27:30.840Z,6.68
2018-05-17T19:29:57.421Z,6.80
2018-05-17T19:32:23.882Z,6.80
2018-05-17T19:34:50.575Z,6.60
2018-05-17T19:37:17.830Z,6.85
2018-05-17T19:39:44.229Z,6.90
2018-05-17T19:42:11.315Z,6.35
2018-05-17T19:44:37.764Z,6.12
2018-05-17T19:47:04.741Z,6.60
2018-05-17T19:49:31.566Z,6.12
2018-05-17T19:51:58.624Z,5.50
2018-05-17T19:54:25.080Z,8.70
2018-05-17T19:56:53.366Z,7.00
2018-05-17T19:59:20.161Z,8.80
2018-05-17T20:01:46.673Z,6.95
2018-05-17T20:04:13.864Z,6.32
2018-05-17T20:06:40.306Z,5.20
2018-05-17T20:09:08.764Z,5.45
2018-05-17T20:11:35.951Z,5.30
2018-05-17T20:14:02.515Z,5.60
2018-05-17T20:16:29.722Z,6.57
2018-05-17T20:18:56.167Z,5.97
2018-05-17T20:21:23.376Z,5.65
2018-05-17T20:23:49.861Z,5.25
2018-05-17T20:26:17.066Z,5.28
2018-05-17T20:28:44.119Z,6.00
2018-05-17T20:31:11.587Z,6.10
2018-05-17T20:33:38.862Z,6.37
2018-05-17T20:36:05.659Z,6.18
2018-05-17T20:38:32.106Z,5.20
2018-05-17T20:40:59.009Z,5.82
2018-05-17T20:43:25.814Z,5.43
2018-05-17T20:45:53.105Z,5.53
2018-05-17T20:48:20.368Z,6.65
2018-05-17T20:50:50.598Z,6.93
2018-05-17T20:53:17.143Z,5.87
2018-05-17T20:55:44.423Z,5.95
2018-05-17T20:58:11.246Z,6.12
2018-05-17T21:00:37.776Z,6.85
2018-05-17T21:03:04.220Z,6.07
2018-05-17T21:05:30.678Z,5.72
2018-05-17T21:07:57.133Z,5.72
2018-05-17T21:10:24.016Z,5.12
2018-05-17T21:12:51.014Z,5.18
2018-05-17T21:15:18.635Z,5.68
2018-05-17T21:17:45.102Z,5.60
2018-05-17T21:20:11.743Z,7.53
2018-05-17T21:22:38.308Z,9.43
2018-05-17T21:25:04.766Z,10.43
2018-05-17T21:27:31.625Z,5.85
2018-05-17T21:29:58.431Z,7.35
2018-05-17T21:32:25.055Z,7.45
2018-05-17T21:34:52.373Z,5.65
2018-05-17T21:37:19.602Z,6.60
2018-05-17T21:39:46.521Z,9.43
2018-05-17T21:42:12.966Z,6.95
2018-05-17T21:44:40.811Z,9.80
2018-05-17T21:47:07.345Z,8.95
2018-05-17T21:49:33.851Z,8.30
2018-05-17T21:52:01.339Z,6.43
2018-05-17T21:54:29.287Z,6.80
2018-05-17T21:56:56.184Z,6.10
2018-05-17T21:59:24.329Z,6.30
2018-05-17T22:01:50.770Z,6.50
2018-05-17T22:04:17.201Z,6.32
2018-05-17T22:06:43.707Z,6.95
2018-05-17T22:09:10.154Z,7.65
2018-05-17T22:11:36.640Z,7.25
2018-05-17T22:14:03.164Z,7.10
2018-05-17T22:16:29.734Z,5.68
2018-05-17T22:18:56.227Z,5.80
2018-05-17T22:21:22.766Z,6.25
2018-05-17T22:23:49.294Z,6.40
2018-05-17T22:26:16.203Z,5.68
2018-05-17T22:28:42.706Z,5.57
2018-05-17T22:31:09.887Z,5.07
2018-05-17T22:33:37.998Z,5.60
2018-05-17T22:36:04.449Z,5.60
2018-05-17T22:38:30.932Z,5.82
2018-05-17T22:40:57.731Z,6.20
2018-05-17T22:43:24.540Z,6.93
2018-05-17T22:45:51.363Z,6.00
2018-05-17T22:48:18.223Z,6.03
2018-05-17T22:50:45.245Z,6.68
2018-05-17T22:53:12.047Z,5.43
2018-05-17T22:55:38.696Z,5.82
2018-05-17T22:58:18.103Z,6.45
2018-05-17T23:00:44.602Z,5.72
2018-05-17T23:03:11.079Z,6.57
2018-05-17T23:05:37.683Z,6.05
2018-05-17T23:08:04.504Z,6.47
2018-05-17T23:10:32.012Z,5.97
2018-05-17T23:12:59.283Z,6.22
2018-05-17T23:15:25.730Z,5.72
2018-05-17T23:17:53.568Z,6.68
2018-05-17T23:20:20.002Z,6.00
2018-05-17T23:22:47.195Z,6.25
2018-05-17T23:25:13.714Z,6.22
2018-05-17T23:27:40.522Z,5.95
2018-05-17T23:30:07.395Z,5.65
2018-05-17T23:32:34.178Z,5.62
2018-05-17T23:35:01.287Z,5.60
2018-05-17T23:37:27.734Z,5.20
2018-05-17T23:39:55.276Z,6.32
2018-05-17T23:42:21.793Z,6.45
2018-05-17T23:44:48.594Z,7.20
2018-05-17T23:47:15.534Z,6.07
2018-05-17T23:49:41.976Z,5.78
2018-05-17T23:52:08.808Z,6.10
2018-05-17T23:54:36.002Z,6.20
2018-05-17T23:57:02.599Z,6.70
2018-05-17T23:59:29.050Z,6.68
